createdAt,value
2023-04-18T00:00:47.624Z,2.56
2023-04-18T00:04:47.801Z,2.55
2023-04-18T00:08:47.682Z,2.57
2023-04-18T00:12:47.737Z,2.50
2023-04-18T00:16:47.861Z,2.54
2023-04-18T00:20:47.811Z,2.52
2023-04-18T00:24:47.837Z,2.46
2023-04-18T00:28:47.863Z,2.47
2023-04-18T00:32:48.008Z,2.48
2023-04-18T00:36:48.117Z,2.45
2023-04-18T00:40:48.286Z,2.39
2023-04-18T00:44:48.437Z,2.38
2023-04-18T00:48:48.563Z,2.38
2023-04-18T00:52:48.751Z,2.33
2023-04-18T00:56:48.930Z,2.34
2023-04-18T01:00:49.012Z,2.34
2023-04-18T01:04:49.197Z,2.31
2023-04-18T01:08:49.381Z,2.31
2023-04-18T01:12:49.555Z,2.26
2023-04-18T01:16:49.729Z,2.27
2023-04-18T01:20:49.946Z,2.23
2023-04-18T01:24:50.100Z,2.28
2023-04-18T01:28:50.247Z,2.20
2023-04-18T01:32:50.486Z,2.19
2023-04-18T01:36:50.620Z,2.16
2023-04-18T01:40:50.769Z,2.20
2023-04-18T01:44:50.946Z,2.13
2023-04-18T01:48:51.121Z,2.17
2023-04-18T01:52:51.265Z,2.14
2023-04-18T01:56:51.413Z,2.09
2023-04-18T02:00:51.587Z,2.11
2023-04-18T02:04:51.732Z,2.09
2023-04-18T02:08:51.883Z,2.08
2023-04-18T02:12:52.064Z,2.05
2023-04-18T02:16:52.337Z,2.04
2023-04-18T02:20:52.493Z,2.01
2023-04-18T02:24:52.644Z,2.00
2023-04-18T02:28:52.848Z,2.02
2023-04-18T02:32:53.186Z,1.98
2023-04-18T02:36:53.184Z,1.97
2023-04-18T02:40:53.339Z,1.94
2023-04-18T02:44:53.551Z,1.95
2023-04-18T02:48:53.726Z,1.90
2023-04-18T02:52:53.949Z,1.91
2023-04-18T02:56:54.177Z,1.90
2023-04-18T03:00:54.479Z,1.87
2023-04-18T03:04:54.549Z,1.89
2023-04-18T03:08:54.760Z,1.86
2023-04-18T03:12:54.994Z,1.85
2023-04-18T03:16:55.525Z,1.83
2023-04-18T03:20:55.369Z,1.82
2023-04-18T03:24:55.572Z,1.80
2023-04-18T03:28:55.765Z,1.81
2023-04-18T03:32:56.003Z,1.79
2023-04-18T03:36:56.124Z,1.78
2023-04-18T03:40:56.336Z,1.79
2023-04-18T03:44:56.504Z,1.78
2023-04-18T03:48:56.727Z,1.73
2023-04-18T03:52:56.687Z,1.74
2023-04-18T03:56:56.654Z,1.72
2023-04-18T04:00:56.605Z,1.73
2023-04-18T04:04:56.641Z,1.70
2023-04-18T04:08:56.565Z,1.69
2023-04-18T04:12:56.571Z,1.69
2023-04-18T04:16:56.472Z,1.69
2023-04-18T04:20:56.436Z,1.68
2023-04-18T04:24:56.423Z,1.66
2023-04-18T04:28:56.360Z,1.64
2023-04-18T04:32:56.352Z,1.64
2023-04-18T04:36:56.574Z,1.64
2023-04-18T04:40:56.762Z,1.64
2023-04-18T04:44:57.122Z,1.59
2023-04-18T04:48:57.152Z,1.61
2023-04-18T04:52:57.318Z,1.60
2023-04-18T04:56:57.548Z,1.57
2023-04-18T05:00:57.781Z,1.57
2023-04-18T05:04:57.961Z,1.56
2023-04-18T05:08:58.151Z,1.57
2023-04-18T05:12:58.291Z,1.65
2023-04-18T05:16:58.425Z,1.69
2023-04-18T05:20:58.417Z,1.69
2023-04-18T05:24:58.503Z,1.65
2023-04-18T05:28:58.557Z,1.56
2023-04-18T05:32:58.691Z,1.50
2023-04-18T05:36:58.739Z,1.54
2023-04-18T05:40:58.786Z,1.52
2023-04-18T05:44:58.817Z,1.49
2023-04-18T05:48:58.864Z,1.45
2023-04-18T05:52:58.992Z,1.64
2023-04-18T05:56:59.113Z,1.63
2023-04-18T06:00:59.240Z,1.52
2023-04-18T06:04:59.620Z,1.45
2023-04-18T06:08:59.412Z,1.66
2023-04-18T06:12:59.482Z,1.87
2023-04-18T06:16:59.598Z,2.37
2023-04-18T06:20:59.648Z,3.10
2023-04-18T06:24:59.878Z,3.86
2023-04-18T06:29:00.063Z,4.76
2023-04-18T06:33:00.226Z,5.72
2023-04-18T06:37:00.303Z,6.65
2023-04-18T06:41:00.278Z,7.47
2023-04-18T06:45:00.344Z,8.56
2023-04-18T06:49:00.401Z,10.08
2023-04-18T06:53:00.516Z,11.86
2023-04-18T06:57:00.496Z,12.81
2023-04-18T07:01:00.608Z,14.26
2023-04-18T07:05:08.113Z,14.11
2023-04-18T07:09:00.800Z,14.62
2023-04-18T07:13:00.557Z,14.49
2023-04-18T07:17:00.542Z,14.02
2023-04-18T07:21:00.481Z,13.64
2023-04-18T07:25:00.633Z,13.21
2023-04-18T07:29:00.399Z,12.61
2023-04-18T07:33:07.365Z,12.34
2023-04-18T07:37:00.341Z,11.73
2023-04-18T07:41:07.795Z,11.60
2023-04-18T07:45:00.271Z,12.22
2023-04-18T07:49:00.245Z,5.56
2023-04-18T07:53:00.184Z,6.25
2023-04-18T07:57:00.198Z,6.75
2023-04-18T08:01:00.152Z,7.39
2023-04-18T08:05:00.281Z,7.86
2023-04-18T08:09:00.072Z,8.69
2023-04-18T08:13:07.714Z,9.45
2023-04-18T08:17:00.150Z,10.06
2023-04-18T08:21:00.151Z,11.17
2023-04-18T08:25:05.086Z,12.55
2023-04-18T08:29:01.203Z,13.05
2023-04-18T08:33:00.051Z,13.99
2023-04-18T08:37:00.127Z,14.33
2023-04-18T08:41:00.284Z,14.48
2023-04-18T08:45:00.459Z,4.38
2023-04-18T08:49:00.434Z,4.73
2023-04-18T08:53:00.489Z,6.52
2023-04-18T08:57:00.568Z,7.85
2023-04-18T09:01:00.799Z,0.78
2023-04-18T09:05:00.811Z,1.06
2023-04-18T09:09:00.908Z,2.67
2023-04-18T09:13:01.097Z,4.54
2023-04-18T09:17:01.213Z,6.47
2023-04-18T09:21:01.152Z,9.00
2023-04-18T09:25:01.274Z,11.87
2023-04-18T09:29:01.491Z,16.36
2023-04-18T09:33:01.804Z,17.93
2023-04-18T09:37:01.875Z,22.75
2023-04-18T09:41:01.956Z,24.68
2023-04-18T09:45:02.100Z,30.00
2023-04-18T09:49:02.379Z,40.39
2023-04-18T09:53:02.422Z,16.79
2023-04-18T09:57:02.565Z,21.09
2023-04-18T10:01:02.860Z,21.67
2023-04-18T10:05:02.863Z,19.91
2023-04-18T10:09:02.695Z,20.95
2023-04-18T10:13:02.663Z,19.97
2023-04-18T10:17:02.648Z,18.54
2023-04-18T10:21:02.617Z,17.79
2023-04-18T10:25:02.534Z,17.45
2023-04-18T10:29:02.508Z,16.80
2023-04-18T10:33:02.451Z,15.80
2023-04-18T10:37:02.441Z,14.60
2023-04-18T10:41:02.379Z,13.90
2023-04-18T10:45:02.442Z,2.29
2023-04-18T10:49:02.351Z,4.01
2023-04-18T10:53:02.410Z,3.88
2023-04-18T10:57:02.265Z,3.09
2023-04-18T11:01:02.380Z,2.63
2023-04-18T11:05:02.216Z,2.16
2023-04-18T11:09:02.202Z,1.82
2023-04-18T11:13:02.100Z,1.49
2023-04-18T11:17:02.163Z,1.34
2023-04-18T11:21:02.252Z,1.26
2023-04-18T11:25:02.445Z,1.14
2023-04-18T11:29:02.602Z,1.02
2023-04-18T11:33:02.855Z,0.95
2023-04-18T11:37:03.037Z,0.90
2023-04-18T11:41:03.036Z,0.86
2023-04-18T11:45:02.965Z,0.84
2023-04-18T11:49:02.913Z,0.73
2023-04-18T11:53:02.917Z,0.66
2023-04-18T11:57:02.879Z,0.60
2023-04-18T12:01:02.835Z,0.61
2023-04-18T12:05:03.236Z,0.57
2023-04-18T12:09:02.773Z,0.51
2023-04-18T12:13:02.874Z,0.52
2023-04-18T12:17:02.677Z,0.58
2023-04-18T12:21:02.636Z,0.50
2023-04-18T12:25:02.633Z,0.50
2023-04-18T12:29:02.573Z,0.53
2023-04-18T12:33:02.576Z,0.51
2023-04-18T12:37:02.500Z,0.58
2023-04-18T12:41:02.480Z,0.50
2023-04-18T12:45:02.415Z,0.58
2023-04-18T12:49:02.504Z,0.61
2023-04-18T12:53:02.555Z,0.65
2023-04-18T12:57:02.600Z,0.62
2023-04-18T13:01:09.727Z,0.55
2023-04-18T13:05:02.652Z,0.56
2023-04-18T13:09:02.617Z,0.65
2023-04-18T13:13:02.612Z,1.44
2023-04-18T13:17:02.605Z,1.66
2023-04-18T13:21:02.493Z,1.96
2023-04-18T13:25:02.448Z,2.18
2023-04-18T13:29:02.447Z,2.46
2023-04-18T13:33:02.521Z,2.77
2023-04-18T13:37:02.382Z,2.95
2023-04-18T13:41:12.314Z,3.14
2023-04-18T13:45:03.343Z,3.28
2023-04-18T13:49:02.256Z,3.50
2023-04-18T13:53:02.286Z,3.58
2023-04-18T13:58:24.199Z,0.50
2023-04-18T13:59:24.194Z,0.50
2023-04-18T14:00:24.250Z,0.50
2023-04-18T14:01:24.250Z,0.50
2023-04-18T14:02:24.422Z,0.50
2023-04-18T14:03:24.312Z,0.50
2023-04-18T14:04:24.404Z,0.51
2023-04-18T14:05:24.150Z,0.52
2023-04-18T14:06:24.161Z,0.53
2023-04-18T14:07:24.174Z,0.53
2023-04-18T14:08:24.113Z,0.52
2023-04-18T14:09:24.117Z,0.52
2023-04-18T14:10:24.117Z,0.52
2023-04-18T14:11:24.128Z,0.54
2023-04-18T14:12:24.107Z,0.56
2023-04-18T14:13:24.098Z,0.57
2023-04-18T14:14:24.085Z,0.56
2023-04-18T14:15:24.192Z,0.56
2023-04-18T14:16:24.210Z,0.58
2023-04-18T14:17:24.127Z,0.57
2023-04-18T14:18:24.062Z,0.58
2023-04-18T14:19:24.116Z,0.59
2023-04-18T14:20:24.056Z,0.59
2023-04-18T14:21:24.054Z,0.60
2023-04-18T14:22:24.041Z,0.60
2023-04-18T14:23:24.040Z,0.60
2023-04-18T14:24:24.029Z,0.60
2023-04-18T14:25:24.032Z,0.61
2023-04-18T14:26:24.015Z,0.61
2023-04-18T14:27:24.045Z,0.60
2023-04-18T14:28:24.035Z,0.61
2023-04-18T14:29:23.974Z,0.62
2023-04-18T14:30:24.040Z,0.62
2023-04-18T14:31:24.036Z,0.61
2023-04-18T14:32:24.027Z,0.61
2023-04-18T14:33:23.970Z,0.61
2023-04-18T14:34:23.950Z,0.62
2023-04-18T14:35:23.965Z,0.60
2023-04-18T14:36:23.975Z,0.60
2023-04-18T14:37:23.938Z,0.61
2023-04-18T14:38:23.972Z,0.61
2023-04-18T14:39:23.959Z,0.61
2023-04-18T14:40:23.932Z,0.61
2023-04-18T14:41:23.929Z,0.61
2023-04-18T14:42:23.946Z,0.62
2023-04-18T14:43:23.936Z,0.62
2023-04-18T14:44:23.910Z,0.61
2023-04-18T14:45:23.930Z,0.62
2023-04-18T14:46:23.964Z,0.61
2023-04-18T14:47:24.415Z,0.62
2023-04-18T14:48:24.049Z,0.62
2023-04-18T14:49:24.010Z,0.61
2023-04-18T14:50:24.020Z,0.61
2023-04-18T14:51:24.056Z,0.61
2023-04-18T14:52:24.164Z,0.61
2023-04-18T14:53:24.110Z,0.59
2023-04-18T14:54:24.157Z,0.60
2023-04-18T14:55:24.169Z,0.61
2023-04-18T14:56:24.214Z,0.60
2023-04-18T14:57:24.389Z,0.61
2023-04-18T14:58:24.285Z,0.60
2023-04-18T14:59:24.303Z,0.61
2023-04-18T15:00:24.340Z,0.61
2023-04-18T15:01:24.383Z,0.61
2023-04-18T15:02:24.508Z,0.61
2023-04-18T15:03:24.532Z,0.61
2023-04-18T15:04:24.558Z,0.61
2023-04-18T15:05:24.457Z,0.60
2023-04-18T15:06:24.510Z,0.61
2023-04-18T15:07:24.499Z,0.60
2023-04-18T15:08:24.562Z,0.60
2023-04-18T15:09:24.569Z,0.61
2023-04-18T15:10:24.680Z,0.61
2023-04-18T15:11:24.638Z,0.61
2023-04-18T15:12:24.646Z,0.60
2023-04-18T15:13:24.731Z,0.61
2023-04-18T15:14:24.735Z,0.61
2023-04-18T15:15:24.768Z,0.60
2023-04-18T15:16:24.916Z,0.60
2023-04-18T15:17:24.828Z,0.59
2023-04-18T15:18:24.828Z,0.61
2023-04-18T15:19:24.878Z,0.60
2023-04-18T15:20:24.932Z,0.60
2023-04-18T15:21:24.988Z,0.59
2023-04-18T15:22:24.976Z,0.59
2023-04-18T15:23:25.027Z,0.61
2023-04-18T15:24:25.065Z,0.60
2023-04-18T15:25:25.130Z,0.58
2023-04-18T15:26:25.090Z,0.60
2023-04-18T15:27:25.158Z,0.59
2023-04-18T15:28:25.167Z,0.58
2023-04-18T15:29:25.214Z,0.59
2023-04-18T15:30:25.271Z,0.58
2023-04-18T15:31:25.363Z,0.59
2023-04-18T15:32:25.412Z,0.59
2023-04-18T15:33:25.383Z,0.59
2023-04-18T15:34:25.420Z,0.59
2023-04-18T15:35:25.466Z,0.59
2023-04-18T15:36:25.501Z,0.58
2023-04-18T15:37:25.602Z,0.59
2023-04-18T15:38:25.593Z,0.58
2023-04-18T15:39:25.616Z,0.58
2023-04-18T15:40:25.795Z,0.61
2023-04-18T15:41:25.674Z,0.59
2023-04-18T15:42:25.775Z,0.59
2023-04-18T15:43:25.766Z,0.58
2023-04-18T15:44:25.786Z,0.58
2023-04-18T15:45:25.818Z,0.58
2023-04-18T15:46:25.927Z,0.59
2023-04-18T15:47:25.912Z,0.59
2023-04-18T15:48:25.941Z,0.59
2023-04-18T15:49:25.952Z,0.59
2023-04-18T15:50:26.080Z,0.59
2023-04-18T15:51:26.070Z,0.59
2023-04-18T15:52:26.059Z,0.59
2023-04-18T15:53:26.140Z,0.59
2023-04-18T15:54:26.142Z,0.58
2023-04-18T15:55:26.148Z,0.57
2023-04-18T15:56:26.205Z,0.57
2023-04-18T15:57:26.271Z,0.59
2023-04-18T15:58:26.276Z,0.59
2023-04-18T15:59:26.326Z,0.57
2023-04-18T16:00:26.348Z,0.57
2023-04-18T16:01:26.380Z,0.58
2023-04-18T16:02:26.517Z,0.58
2023-04-18T16:03:26.624Z,0.58
2023-04-18T16:04:26.521Z,0.57
2023-04-18T16:05:26.575Z,0.58
2023-04-18T16:06:26.640Z,0.57
2023-04-18T16:07:26.593Z,0.57
2023-04-18T16:08:26.656Z,0.58
2023-04-18T16:09:26.687Z,0.57
2023-04-18T16:10:26.744Z,0.56
2023-04-18T16:11:26.771Z,0.57
2023-04-18T16:12:26.910Z,0.56
2023-04-18T16:13:26.846Z,0.57
2023-04-18T16:14:26.906Z,0.57
2023-04-18T16:15:26.924Z,0.57
2023-04-18T16:16:27.039Z,0.57
2023-04-18T16:17:27.049Z,0.56
2023-04-18T16:18:27.055Z,0.58
2023-04-18T16:19:27.076Z,0.58
2023-04-18T16:20:27.084Z,0.56
2023-04-18T16:21:27.134Z,0.57
2023-04-18T16:22:27.179Z,0.57
2023-04-18T16:23:28.178Z,0.58
2023-04-18T16:24:27.158Z,0.58
2023-04-18T16:25:27.173Z,0.57
2023-04-18T16:26:27.132Z,0.58
2023-04-18T16:27:27.137Z,0.57
2023-04-18T16:28:27.181Z,0.58
2023-04-18T16:29:27.133Z,0.58
2023-04-18T16:30:27.144Z,0.58
2023-04-18T16:31:27.193Z,0.58
2023-04-18T16:32:27.153Z,0.57
2023-04-18T16:33:27.193Z,0.57
2023-04-18T16:34:27.095Z,0.57
2023-04-18T16:35:27.110Z,0.57
2023-04-18T16:36:27.066Z,0.59
2023-04-18T16:37:27.145Z,0.56
2023-04-18T16:38:27.185Z,0.57
2023-04-18T16:39:27.191Z,0.57
2023-04-18T16:40:27.241Z,0.57
2023-04-18T16:41:27.280Z,0.57
2023-04-18T16:42:27.327Z,0.57
2023-04-18T16:43:27.362Z,0.57
2023-04-18T16:44:27.412Z,0.57
2023-04-18T16:45:27.480Z,0.57
2023-04-18T16:46:27.496Z,0.57
2023-04-18T16:47:27.586Z,0.58
2023-04-18T16:48:27.540Z,0.57
2023-04-18T16:49:27.584Z,0.57
2023-04-18T16:50:27.634Z,0.56
2023-04-18T16:51:27.701Z,0.55
2023-04-18T16:52:27.695Z,0.57
2023-04-18T16:53:27.754Z,0.57
2023-04-18T16:54:27.792Z,0.57
2023-04-18T16:55:27.795Z,0.56
2023-04-18T16:56:27.841Z,0.57
2023-04-18T16:57:27.869Z,0.58
2023-04-18T16:58:27.927Z,0.57
2023-04-18T16:59:27.954Z,0.56
2023-04-18T17:00:28.081Z,0.57
2023-04-18T17:01:28.057Z,0.57
2023-04-18T17:02:28.342Z,0.57
2023-04-18T17:03:28.230Z,0.56
2023-04-18T17:04:28.164Z,0.56
2023-04-18T17:05:28.172Z,0.55
2023-04-18T17:06:28.213Z,0.56
2023-04-18T17:07:28.262Z,0.56
2023-04-18T17:08:28.269Z,0.56
2023-04-18T17:09:28.316Z,0.56
2023-04-18T17:10:28.350Z,0.55
2023-04-18T17:11:28.371Z,0.56
2023-04-18T17:12:28.443Z,0.55
2023-04-18T17:13:28.479Z,0.56
2023-04-18T17:14:28.466Z,0.56
2023-04-18T17:15:28.516Z,0.55
2023-04-18T17:16:28.581Z,0.56
2023-04-18T17:17:28.664Z,0.56
2023-04-18T17:18:28.682Z,0.56
2023-04-18T17:19:28.702Z,0.55
2023-04-18T17:20:28.722Z,0.56
2023-04-18T17:21:28.764Z,0.55
2023-04-18T17:22:28.801Z,0.55
2023-04-18T17:23:30.347Z,0.55
2023-04-18T17:24:28.851Z,0.56
2023-04-18T17:25:28.850Z,0.56
2023-04-18T17:26:28.826Z,0.56
2023-04-18T17:27:28.785Z,0.55
2023-04-18T17:28:28.813Z,0.55
2023-04-18T17:29:28.847Z,0.54
2023-04-18T17:30:28.790Z,0.54
2023-04-18T17:31:28.846Z,0.55
2023-04-18T17:32:28.824Z,0.55
2023-04-18T17:33:28.769Z,0.56
2023-04-18T17:34:28.780Z,0.56
2023-04-18T17:35:28.771Z,0.57
2023-04-18T17:36:28.758Z,0.56
2023-04-18T17:37:28.741Z,0.55
2023-04-18T17:38:28.750Z,0.56
2023-04-18T17:39:28.745Z,0.56
2023-04-18T17:40:28.718Z,0.56
2023-04-18T17:41:28.722Z,0.56
2023-04-18T17:42:28.706Z,0.55
2023-04-18T17:43:28.991Z,0.55
2023-04-18T17:44:28.724Z,0.55
2023-04-18T17:45:28.692Z,0.55
2023-04-18T17:46:28.736Z,0.56
2023-04-18T17:47:28.757Z,0.55
2023-04-18T17:48:28.680Z,0.56
2023-04-18T17:49:28.760Z,0.55
2023-04-18T17:50:28.638Z,0.56
2023-04-18T17:51:28.634Z,0.55
2023-04-18T17:52:28.666Z,0.55
2023-04-18T17:53:30.227Z,0.54
2023-04-18T17:54:28.641Z,0.55
2023-04-18T17:55:28.622Z,0.55
2023-04-18T17:56:28.616Z,0.55
2023-04-18T17:57:28.655Z,0.55
2023-04-18T17:58:28.604Z,0.56
2023-04-18T17:59:28.651Z,0.55
2023-04-18T18:00:28.613Z,0.56
2023-04-18T18:01:28.783Z,0.56
2023-04-18T18:02:28.715Z,0.56
2023-04-18T18:03:28.667Z,0.55
2023-04-18T18:04:28.698Z,0.55
2023-04-18T18:05:28.572Z,0.55
2023-04-18T18:06:28.537Z,0.55
2023-04-18T18:07:28.554Z,0.55
2023-04-18T18:08:28.549Z,0.56
2023-04-18T18:09:28.528Z,0.56
2023-04-18T18:10:28.538Z,0.55
2023-04-18T18:11:28.534Z,0.55
2023-04-18T18:12:28.536Z,0.55
2023-04-18T18:13:28.563Z,0.56
2023-04-18T18:14:28.512Z,0.55
2023-04-18T18:15:28.553Z,0.54
2023-04-18T18:16:28.552Z,0.55
2023-04-18T18:17:28.518Z,0.56
2023-04-18T18:18:28.468Z,0.56
2023-04-18T18:19:28.506Z,0.55
2023-04-18T18:20:28.473Z,0.56
2023-04-18T18:21:28.438Z,0.54
2023-04-18T18:22:28.469Z,0.55
2023-04-18T18:23:28.463Z,0.57
2023-04-18T18:24:28.435Z,0.55
2023-04-18T18:25:28.459Z,0.55
2023-04-18T18:26:28.417Z,0.56
2023-04-18T18:27:28.411Z,0.55
2023-04-18T18:28:28.403Z,0.56
2023-04-18T18:29:28.398Z,0.56
2023-04-18T18:30:28.407Z,0.55
2023-04-18T18:31:28.435Z,0.56
2023-04-18T18:32:28.383Z,0.56
2023-04-18T18:33:28.361Z,0.56
2023-04-18T18:34:28.396Z,0.55
2023-04-18T18:35:28.339Z,0.56
2023-04-18T18:36:28.353Z,0.55
2023-04-18T18:37:28.350Z,0.55
2023-04-18T18:38:28.335Z,0.56
2023-04-18T18:39:28.310Z,0.56
2023-04-18T18:40:28.315Z,0.56
2023-04-18T18:41:28.328Z,0.57
2023-04-18T18:42:28.285Z,0.57
2023-04-18T18:43:28.297Z,0.56
2023-04-18T18:44:28.338Z,0.55
2023-04-18T18:45:28.371Z,0.55
2023-04-18T18:46:28.417Z,0.56
2023-04-18T18:47:28.459Z,0.56
2023-04-18T18:48:28.494Z,0.54
2023-04-18T18:49:28.472Z,0.55
2023-04-18T18:50:28.541Z,0.57
2023-04-18T18:51:29.515Z,0.55
2023-04-18T18:52:28.597Z,0.55
2023-04-18T18:53:28.651Z,0.54
2023-04-18T18:54:28.685Z,0.54
2023-04-18T18:55:28.704Z,0.55
2023-04-18T18:56:28.744Z,0.55
2023-04-18T18:57:28.797Z,0.55
2023-04-18T18:58:28.821Z,0.55
2023-04-18T18:59:28.866Z,0.55
2023-04-18T19:00:28.909Z,0.55
2023-04-18T19:01:29.000Z,0.55
2023-04-18T19:02:29.089Z,0.54
2023-04-18T19:03:29.153Z,0.55
2023-04-18T19:04:29.118Z,0.54
2023-04-18T19:05:29.078Z,0.55
2023-04-18T19:06:29.105Z,0.56
2023-04-18T19:07:30.151Z,0.55
2023-04-18T19:08:29.235Z,0.55
2023-04-18T19:09:29.254Z,0.54
2023-04-18T19:10:29.289Z,0.56
2023-04-18T19:11:29.319Z,0.56
2023-04-18T19:12:29.395Z,0.55
2023-04-18T19:13:29.407Z,0.55
2023-04-18T19:14:29.422Z,0.55
2023-04-18T19:15:29.491Z,0.56
2023-04-18T19:16:29.516Z,0.55
2023-04-18T19:17:29.571Z,0.55
2023-04-18T19:18:30.010Z,0.56
2023-04-18T19:19:29.640Z,0.56
2023-04-18T19:20:29.656Z,0.56
2023-04-18T19:21:29.732Z,0.55
2023-04-18T19:22:29.735Z,0.55
2023-04-18T19:23:29.786Z,0.55
2023-04-18T19:24:29.791Z,0.55
2023-04-18T19:25:29.820Z,0.55
2023-04-18T19:26:29.881Z,0.55
2023-04-18T19:27:29.917Z,0.55
2023-04-18T19:28:29.993Z,0.55
2023-04-18T19:29:31.933Z,0.54
2023-04-18T19:30:30.242Z,0.55
2023-04-18T19:31:30.257Z,0.54
2023-04-18T19:32:30.340Z,0.54
2023-04-18T19:33:30.345Z,0.57
2023-04-18T19:34:30.386Z,0.55
2023-04-18T19:35:30.400Z,0.55
2023-04-18T19:36:30.443Z,0.55
2023-04-18T19:37:30.505Z,0.56
2023-04-18T19:38:30.541Z,0.56
2023-04-18T19:39:30.555Z,0.56
2023-04-18T19:40:30.686Z,0.56
2023-04-18T19:41:30.632Z,0.56
2023-04-18T19:42:30.669Z,0.55
2023-04-18T19:43:30.711Z,0.54
2023-04-18T19:44:30.760Z,0.55
2023-04-18T19:45:30.871Z,0.55
2023-04-18T19:46:30.887Z,0.54
2023-04-18T19:47:30.890Z,0.55
2023-04-18T19:48:30.932Z,0.56
2023-04-18T19:49:30.953Z,0.55
2023-04-18T19:50:30.978Z,0.55
2023-04-18T19:51:31.008Z,0.55
2023-04-18T19:52:31.044Z,0.55
2023-04-18T19:53:31.136Z,0.55
2023-04-18T19:54:31.149Z,0.55
2023-04-18T19:55:31.208Z,0.56
2023-04-18T19:56:31.219Z,0.55
2023-04-18T19:57:31.267Z,0.54
2023-04-18T19:58:31.333Z,0.55
2023-04-18T19:59:31.293Z,0.54
2023-04-18T20:00:31.375Z,0.54
2023-04-18T20:01:31.429Z,0.55
2023-04-18T20:02:31.553Z,0.55
2023-04-18T20:03:31.548Z,0.55
2023-04-18T20:04:31.793Z,0.55
2023-04-18T20:05:31.732Z,0.55
2023-04-18T20:06:31.573Z,0.55
2023-04-18T20:07:31.601Z,0.56
2023-04-18T20:08:31.615Z,0.55
2023-04-18T20:09:31.693Z,0.54
2023-04-18T20:10:31.726Z,0.55
2023-04-18T20:11:31.746Z,0.56
2023-04-18T20:12:31.782Z,0.54
2023-04-18T20:13:31.847Z,0.55
2023-04-18T20:14:31.900Z,0.55
2023-04-18T20:15:31.883Z,0.55
2023-04-18T20:16:31.960Z,0.56
2023-04-18T20:17:31.990Z,0.55
2023-04-18T20:18:32.010Z,0.55
2023-04-18T20:19:32.036Z,0.54
2023-04-18T20:20:32.039Z,0.54
2023-04-18T20:21:32.137Z,0.54
2023-04-18T20:22:32.126Z,0.55
2023-04-18T20:23:32.200Z,0.54
2023-04-18T20:24:32.238Z,0.54
2023-04-18T20:25:32.240Z,0.54
2023-04-18T20:26:32.304Z,0.54
2023-04-18T20:27:32.341Z,0.55
2023-04-18T20:28:32.448Z,0.55
2023-04-18T20:29:32.380Z,0.54
2023-04-18T20:30:32.444Z,0.55
2023-04-18T20:31:32.501Z,0.55
2023-04-18T20:32:32.601Z,0.54
2023-04-18T20:33:32.546Z,0.55
2023-04-18T20:34:32.614Z,0.55
2023-04-18T20:35:32.663Z,0.54
2023-04-18T20:36:32.698Z,0.54
2023-04-18T20:37:32.736Z,0.55
2023-04-18T20:38:32.761Z,0.54
2023-04-18T20:39:32.801Z,0.54
2023-04-18T20:40:32.802Z,0.55
2023-04-18T20:41:32.874Z,0.55
2023-04-18T20:42:32.908Z,0.53
2023-04-18T20:43:32.969Z,0.55
2023-04-18T20:44:33.013Z,0.54
2023-04-18T20:45:33.050Z,0.54
2023-04-18T20:46:33.237Z,0.55
2023-04-18T20:47:33.152Z,0.54
2023-04-18T20:48:33.170Z,0.56
2023-04-18T20:49:33.214Z,0.54
2023-04-18T20:50:33.245Z,0.55
2023-04-18T20:51:33.284Z,0.55
2023-04-18T20:52:33.297Z,0.55
2023-04-18T20:53:33.376Z,0.55
2023-04-18T20:54:33.388Z,0.55
2023-04-18T20:55:33.453Z,0.55
2023-04-18T20:56:33.498Z,0.55
2023-04-18T20:57:33.524Z,0.55
2023-04-18T20:58:33.601Z,0.55
2023-04-18T20:59:33.620Z,0.56
2023-04-18T21:00:33.696Z,0.55
2023-04-18T21:01:35.457Z,0.56
2023-04-18T21:02:33.883Z,0.55
2023-04-18T21:03:33.826Z,0.56
2023-04-18T21:04:33.788Z,0.55
2023-04-18T21:05:33.663Z,0.55
2023-04-18T21:06:33.675Z,0.55
2023-04-18T21:07:33.680Z,0.54
2023-04-18T21:08:33.650Z,0.54
2023-04-18T21:09:34.021Z,0.55
2023-04-18T21:10:33.665Z,0.55
2023-04-18T21:11:33.625Z,0.55
2023-04-18T21:12:33.680Z,0.55
2023-04-18T21:13:33.624Z,0.55
2023-04-18T21:14:33.643Z,0.54
2023-04-18T21:15:33.600Z,0.55
2023-04-18T21:16:33.738Z,0.55
2023-04-18T21:17:33.638Z,0.54
2023-04-18T21:18:33.679Z,0.55
2023-04-18T21:19:33.626Z,0.54
2023-04-18T21:20:33.571Z,0.55
2023-04-18T21:21:33.564Z,0.55
2023-04-18T21:22:33.572Z,0.55
2023-04-18T21:23:33.548Z,0.54
2023-04-18T21:24:33.573Z,0.55
2023-04-18T21:25:33.511Z,0.54
2023-04-18T21:26:33.529Z,0.54
2023-04-18T21:27:33.513Z,0.54
2023-04-18T21:28:33.521Z,0.54
2023-04-18T21:29:33.526Z,0.56
2023-04-18T21:30:33.499Z,0.55
2023-04-18T21:31:33.544Z,0.55
2023-04-18T21:32:33.484Z,0.54
2023-04-18T21:33:33.477Z,0.55
2023-04-18T21:34:33.475Z,0.56
2023-04-18T21:35:33.498Z,0.55
2023-04-18T21:36:33.455Z,0.54
2023-04-18T21:37:33.473Z,0.55
2023-04-18T21:38:33.448Z,0.54
2023-04-18T21:39:33.469Z,0.55
2023-04-18T21:40:33.462Z,0.55
2023-04-18T21:41:33.419Z,0.54
2023-04-18T21:42:33.446Z,0.55
2023-04-18T21:43:33.424Z,0.54
2023-04-18T21:44:33.409Z,0.55
2023-04-18T21:45:33.446Z,0.55
2023-04-18T21:46:33.458Z,0.54
2023-04-18T21:47:33.475Z,0.54
2023-04-18T21:48:33.451Z,0.54
2023-04-18T21:49:33.482Z,0.54
2023-04-18T21:50:33.524Z,0.54
2023-04-18T21:51:33.584Z,0.55
2023-04-18T21:52:33.613Z,0.55
2023-04-18T21:53:33.650Z,0.55
2023-04-18T21:54:33.695Z,0.54
2023-04-18T21:55:33.739Z,0.54
2023-04-18T21:56:33.771Z,0.54
2023-04-18T21:57:33.833Z,0.55
2023-04-18T21:58:33.900Z,0.55
2023-04-18T21:59:33.904Z,0.54
2023-04-18T22:00:33.930Z,0.54
2023-04-18T22:01:34.022Z,0.54
2023-04-18T22:02:34.142Z,0.54
2023-04-18T22:03:34.292Z,0.54
2023-04-18T22:04:34.107Z,0.53
2023-04-18T22:05:34.146Z,0.54
2023-04-18T22:06:34.223Z,0.54
2023-04-18T22:07:38.521Z,0.55
2023-04-18T22:08:35.211Z,0.55
2023-04-18T22:09:34.234Z,0.55
2023-04-18T22:10:34.238Z,0.55
2023-04-18T22:11:34.204Z,0.55
2023-04-18T22:12:34.217Z,0.55
2023-04-18T22:13:34.223Z,0.55
2023-04-18T22:14:34.227Z,0.54
2023-04-18T22:15:34.214Z,0.55
2023-04-18T22:16:34.191Z,0.54
2023-04-18T22:17:34.227Z,0.55
2023-04-18T22:18:34.250Z,0.55
2023-04-18T22:19:34.278Z,0.54
2023-04-18T22:20:34.349Z,0.54
2023-04-18T22:21:34.348Z,0.54
2023-04-18T22:22:34.410Z,0.54
2023-04-18T22:23:34.421Z,0.53
2023-04-18T22:24:34.513Z,0.54
2023-04-18T22:25:34.537Z,0.54
2023-04-18T22:26:34.544Z,0.54
2023-04-18T22:27:34.594Z,0.55
2023-04-18T22:28:34.634Z,0.54
2023-04-18T22:29:34.725Z,0.54
2023-04-18T22:30:34.806Z,0.55
2023-04-18T22:31:34.751Z,0.54
2023-04-18T22:32:34.877Z,0.54
2023-04-18T22:33:34.855Z,0.54
2023-04-18T22:34:34.892Z,0.54
2023-04-18T22:35:34.951Z,0.54
2023-04-18T22:36:34.983Z,0.53
2023-04-18T22:37:35.012Z,0.54
2023-04-18T22:38:35.021Z,0.54
2023-04-18T22:39:35.098Z,0.54
2023-04-18T22:40:35.132Z,0.53
2023-04-18T22:41:35.138Z,0.53
2023-04-18T22:42:36.654Z,0.54
2023-04-18T22:43:35.157Z,0.54
2023-04-18T22:44:35.177Z,0.54
2023-04-18T22:45:35.193Z,0.54
2023-04-18T22:46:35.316Z,0.53
2023-04-18T22:47:35.170Z,0.54
2023-04-18T22:48:35.509Z,0.54
2023-04-18T22:49:35.510Z,0.54
2023-04-18T22:50:35.143Z,0.54
2023-04-18T22:51:35.122Z,0.54
2023-04-18T22:52:35.104Z,0.53
2023-04-18T22:53:35.140Z,0.54
2023-04-18T22:54:35.094Z,0.53
2023-04-18T22:55:35.101Z,0.53
2023-04-18T22:56:35.090Z,0.53
2023-04-18T22:57:35.090Z,0.53
2023-04-18T22:58:35.077Z,0.53
2023-04-18T22:59:35.054Z,0.54
2023-04-18T23:00:35.097Z,0.54
2023-04-18T23:01:35.101Z,0.53
2023-04-18T23:02:35.181Z,0.53
2023-04-18T23:03:35.138Z,0.55
2023-04-18T23:04:35.177Z,0.54
2023-04-18T23:05:35.026Z,0.54
2023-04-18T23:06:35.014Z,0.54
2023-04-18T23:07:35.033Z,0.52
2023-04-18T23:08:34.985Z,0.53
2023-04-18T23:09:34.997Z,0.53
2023-04-18T23:10:34.989Z,0.54
2023-04-18T23:11:34.954Z,0.52
2023-04-18T23:12:34.978Z,0.53
2023-04-18T23:13:34.969Z,0.55
2023-04-18T23:14:34.957Z,0.53
2023-04-18T23:15:35.008Z,0.54
2023-04-18T23:16:34.958Z,0.53
2023-04-18T23:17:35.003Z,0.54
2023-04-18T23:18:34.914Z,0.53
2023-04-18T23:19:34.956Z,0.53
2023-04-18T23:20:34.895Z,0.54
2023-04-18T23:21:34.905Z,0.53
2023-04-18T23:22:34.892Z,0.52
2023-04-18T23:23:34.910Z,0.53
2023-04-18T23:24:34.870Z,0.53
2023-04-18T23:25:34.881Z,0.53
2023-04-18T23:26:34.873Z,0.53
2023-04-18T23:27:34.882Z,0.52
2023-04-18T23:28:35.014Z,0.53
2023-04-18T23:29:34.926Z,0.55
2023-04-18T23:30:34.983Z,0.53
2023-04-18T23:31:35.065Z,0.53
2023-04-18T23:32:35.082Z,0.53
2023-04-18T23:33:35.101Z,0.53
2023-04-18T23:34:35.186Z,0.53
2023-04-18T23:35:35.182Z,0.53
2023-04-18T23:36:35.240Z,0.53
2023-04-18T23:37:35.284Z,0.53
2023-04-18T23:38:35.301Z,0.53
2023-04-18T23:39:35.368Z,0.53
2023-04-18T23:40:35.430Z,0.53
2023-04-18T23:41:35.469Z,0.53
2023-04-18T23:42:35.510Z,0.53
2023-04-18T23:43:35.572Z,0.54
2023-04-18T23:44:35.645Z,0.53
2023-04-18T23:45:35.628Z,0.53
2023-04-18T23:46:36.632Z,0.52